sensor_id;sensor_type;location;lat;lon;timestamp;temperature;humidity
65470;DHT22;52067;50.710;14.492;2024-02-21T00:01:23;5.73;88.22
65470;DHT22;52067;50.710;14.492;2024-02-21T00:03:49;5.66;88.65
65470;DHT22;52067;50.710;14.492;2024-02-21T00:06:14;5.72;88.55
65470;DHT22;52067;50.710;14.492;2024-02-21T00:08:39;5.56;88.46
65470;DHT22;52067;50.710;14.492;2024-02-21T00:11:05;5.52;88.71
65470;DHT22;52067;50.710;14.492;2024-02-21T00:13:30;5.62;88.75
65470;DHT22;52067;50.710;14.492;2024-02-21T00:15:56;5.78;88.23
65470;DHT22;52067;50.710;14.492;2024-02-21T00:18:21;5.79;88.17
65470;DHT22;52067;50.710;14.492;2024-02-21T00:20:47;5.82;87.91
65470;DHT22;52067;50.710;14.492;2024-02-21T00:23:12;5.89;87.84
65470;DHT22;52067;50.710;14.492;2024-02-21T00:25:37;5.89;87.71
65470;DHT22;52067;50.710;14.492;2024-02-21T00:28:03;5.90;87.57
65470;DHT22;52067;50.710;14.492;2024-02-21T00:30:28;5.75;88.18
65470;DHT22;52067;50.710;14.492;2024-02-21T00:32:54;5.83;87.85
65470;DHT22;52067;50.710;14.492;2024-02-21T00:35:19;5.82;87.72
65470;DHT22;52067;50.710;14.492;2024-02-21T00:37:44;5.82;87.63
65470;DHT22;52067;50.710;14.492;2024-02-21T00:40:10;5.73;87.74
65470;DHT22;52067;50.710;14.492;2024-02-21T00:42:36;5.72;87.59
65470;DHT22;52067;50.710;14.492;2024-02-21T00:45:01;5.51;88.11
65470;DHT22;52067;50.710;14.492;2024-02-21T00:47:26;5.54;88.04
65470;DHT22;52067;50.710;14.492;2024-02-21T00:49:52;5.48;87.96
65470;DHT22;52067;50.710;14.492;2024-02-21T00:52:17;5.48;87.72
65470;DHT22;52067;50.710;14.492;2024-02-21T00:54:43;5.16;88.96
65470;DHT22;52067;50.710;14.492;2024-02-21T00:57:08;5.16;88.80
65470;DHT22;52067;50.710;14.492;2024-02-21T00:59:34;5.11;88.90
65470;DHT22;52067;50.710;14.492;2024-02-21T01:01:59;5.06;88.92
65470;DHT22;52067;50.710;14.492;2024-02-21T01:04:24;4.89;89.38
65470;DHT22;52067;50.710;14.492;2024-02-21T01:06:50;5.16;88.94
65470;DHT22;52067;50.710;14.492;2024-02-21T01:09:15;5.23;88.54
65470;DHT22;52067;50.710;14.492;2024-02-21T01:11:41;5.31;88.40
65470;DHT22;52067;50.710;14.492;2024-02-21T01:14:06;5.20;88.49
65470;DHT22;52067;50.710;14.492;2024-02-21T01:16:31;4.99;88.86
65470;DHT22;52067;50.710;14.492;2024-02-21T01:18:57;5.01;88.85
65470;DHT22;52067;50.710;14.492;2024-02-21T01:21:22;4.99;88.60
65470;DHT22;52067;50.710;14.492;2024-02-21T01:23:48;4.53;90.07
65470;DHT22;52067;50.710;14.492;2024-02-21T01:26:13;4.73;90.15
65470;DHT22;52067;50.710;14.492;2024-02-21T01:28:41;4.86;89.45
65470;DHT22;52067;50.710;14.492;2024-02-21T01:31:06;4.92;89.29
65470;DHT22;52067;50.710;14.492;2024-02-21T01:33:32;4.93;88.89
65470;DHT22;52067;50.710;14.492;2024-02-21T01:36:01;4.61;89.55
65470;DHT22;52067;50.710;14.492;2024-02-21T01:38:27;4.68;90.06
65470;DHT22;52067;50.710;14.492;2024-02-21T01:40:53;4.65;89.39
65470;DHT22;52067;50.710;14.492;2024-02-21T01:43:20;4.44;90.58
65470;DHT22;52067;50.710;14.492;2024-02-21T01:45:49;4.32;90.77
65470;DHT22;52067;50.710;14.492;2024-02-21T01:48:18;4.48;90.67
65470;DHT22;52067;50.710;14.492;2024-02-21T01:50:47;4.69;90.05
65470;DHT22;52067;50.710;14.492;2024-02-21T01:53:27;4.38;90.24
65470;DHT22;52067;50.710;14.492;2024-02-21T01:55:54;4.42;90.48
65470;DHT22;52067;50.710;14.492;2024-02-21T01:58:20;4.55;90.07
65470;DHT22;52067;50.710;14.492;2024-02-21T02:00:47;4.56;89.99
65470;DHT22;52067;50.710;14.492;2024-02-21T02:03:13;4.73;89.78
65470;DHT22;52067;50.710;14.492;2024-02-21T02:05:46;4.61;89.68
65470;DHT22;52067;50.710;14.492;2024-02-21T02:08:19;4.53;90.19
65470;DHT22;52067;50.710;14.492;2024-02-21T02:10:45;4.63;89.92
65470;DHT22;52067;50.710;14.492;2024-02-21T02:13:11;4.34;90.38
65470;DHT22;52067;50.710;14.492;2024-02-21T02:15:43;4.53;90.35
65470;DHT22;52067;50.710;14.492;2024-02-21T02:18:09;4.48;90.75
65470;DHT22;52067;50.710;14.492;2024-02-21T02:20:35;4.71;90.41
65470;DHT22;52067;50.710;14.492;2024-02-21T02:23:10;4.77;89.79
65470;DHT22;52067;50.710;14.492;2024-02-21T02:25:36;4.52;90.18
65470;DHT22;52067;50.710;14.492;2024-02-21T02:28:06;4.69;90.18
65470;DHT22;52067;50.710;14.492;2024-02-21T02:30:33;4.77;89.85
65470;DHT22;52067;50.710;14.492;2024-02-21T02:32:59;4.34;90.44
65470;DHT22;52067;50.710;14.492;2024-02-21T02:35:25;4.58;90.51
65470;DHT22;52067;50.710;14.492;2024-02-21T02:37:50;4.72;90.05
65470;DHT22;52067;50.710;14.492;2024-02-21T02:40:17;4.37;90.21
65470;DHT22;52067;50.710;14.492;2024-02-21T02:42:42;4.48;90.64
65470;DHT22;52067;50.710;14.492;2024-02-21T02:45:09;4.38;90.35
65470;DHT22;52067;50.710;14.492;2024-02-21T02:47:34;4.38;90.90
65470;DHT22;52067;50.710;14.492;2024-02-21T02:50:00;4.38;90.58
65470;DHT22;52067;50.710;14.492;2024-02-21T02:52:25;4.59;90.63
65470;DHT22;52067;50.710;14.492;2024-02-21T02:54:51;4.38;90.34
65470;DHT22;52067;50.710;14.492;2024-02-21T02:57:18;4.24;91.03
65470;DHT22;52067;50.710;14.492;2024-02-21T02:59:50;4.44;90.99
65470;DHT22;52067;50.710;14.492;2024-02-21T03:02:16;4.30;90.69
65470;DHT22;52067;50.710;14.492;2024-02-21T03:04:42;4.25;91.13
65470;DHT22;52067;50.710;14.492;2024-02-21T03:07:08;4.56;90.75
65470;DHT22;52067;50.710;14.492;2024-02-21T03:09:33;4.62;90.49
65470;DHT22;52067;50.710;14.492;2024-02-21T03:11:59;4.52;90.29
65470;DHT22;52067;50.710;14.492;2024-02-21T03:14:33;4.63;90.40
65470;DHT22;52067;50.710;14.492;2024-02-21T03:16:58;4.59;90.11
65470;DHT22;52067;50.710;14.492;2024-02-21T03:19:25;4.56;90.19
65470;DHT22;52067;50.710;14.492;2024-02-21T03:21:50;4.71;90.06
65470;DHT22;52067;50.710;14.492;2024-02-21T03:24:16;4.68;89.75
65470;DHT22;52067;50.710;14.492;2024-02-21T03:26:42;4.49;90.35
65470;DHT22;52067;50.710;14.492;2024-02-21T03:29:07;4.40;90.88
65470;DHT22;52067;50.710;14.492;2024-02-21T03:31:34;4.40;90.96
65470;DHT22;52067;50.710;14.492;2024-02-21T03:34:00;4.71;90.77
65470;DHT22;52067;50.710;14.492;2024-02-21T03:36:25;4.45;90.65
65470;DHT22;52067;50.710;14.492;2024-02-21T03:38:50;4.40;90.94
65470;DHT22;52067;50.710;14.492;2024-02-21T03:41:16;4.38;91.04
65470;DHT22;52067;50.710;14.492;2024-02-21T03:43:41;4.66;90.90
65470;DHT22;52067;50.710;14.492;2024-02-21T03:46:07;4.84;90.53
65470;DHT22;52067;50.710;14.492;2024-02-21T03:48:32;4.86;90.15
65470;DHT22;52067;50.710;14.492;2024-02-21T03:50:58;4.77;90.20
65470;DHT22;52067;50.710;14.492;2024-02-21T03:53:24;4.86;89.95
65470;DHT22;52067;50.710;14.492;2024-02-21T03:55:49;4.87;89.75
65470;DHT22;52067;50.710;14.492;2024-02-21T03:58:14;4.97;89.79
65470;DHT22;52067;50.710;14.492;2024-02-21T04:00:40;4.76;89.83
65470;DHT22;52067;50.710;14.492;2024-02-21T04:03:06;4.90;90.01
65470;DHT22;52067;50.710;14.492;2024-02-21T04:05:32;5.04;89.67
65470;DHT22;52067;50.710;14.492;2024-02-21T04:07:57;4.90;89.70
65470;DHT22;52067;50.710;14.492;2024-02-21T04:10:22;4.96;89.56
65470;DHT22;52067;50.710;14.492;2024-02-21T04:12:48;5.01;89.39
65470;DHT22;52067;50.710;14.492;2024-02-21T04:15:18;5.10;89.12
65470;DHT22;52067;50.710;14.492;2024-02-21T04:17:44;5.17;89.08
65470;DHT22;52067;50.710;14.492;2024-02-21T04:20:14;4.84;89.61
65470;DHT22;52067;50.710;14.492;2024-02-21T04:22:40;4.90;89.53
65470;DHT22;52067;50.710;14.492;2024-02-21T04:25:06;4.83;90.24
65470;DHT22;52067;50.710;14.492;2024-02-21T04:27:31;4.96;89.87
65470;DHT22;52067;50.710;14.492;2024-02-21T04:29:57;5.04;89.61
65470;DHT22;52067;50.710;14.492;2024-02-21T04:32:22;4.79;89.66
65470;DHT22;52067;50.710;14.492;2024-02-21T04:34:48;4.93;90.04
65470;DHT22;52067;50.710;14.492;2024-02-21T04:37:13;5.01;89.73
65470;DHT22;52067;50.710;14.492;2024-02-21T04:39:38;5.14;89.44
65470;DHT22;52067;50.710;14.492;2024-02-21T04:42:04;4.75;89.75
65470;DHT22;52067;50.710;14.492;2024-02-21T04:44:29;4.71;90.59
65470;DHT22;52067;50.710;14.492;2024-02-21T04:46:55;4.92;90.26
65470;DHT22;52067;50.710;14.492;2024-02-21T04:49:20;5.10;89.76
65470;DHT22;52067;50.710;14.492;2024-02-21T04:51:45;4.96;89.79
65470;DHT22;52067;50.710;14.492;2024-02-21T04:54:11;4.86;89.91
65470;DHT22;52067;50.710;14.492;2024-02-21T04:56:36;4.82;89.95
65470;DHT22;52067;50.710;14.492;2024-02-21T04:59:01;4.93;90.35
65470;DHT22;52067;50.710;14.492;2024-02-21T05:01:28;4.84;89.80
65470;DHT22;52067;50.710;14.492;2024-02-21T05:03:53;4.65;90.48
65470;DHT22;52067;50.710;14.492;2024-02-21T05:06:19;4.73;90.48
65470;DHT22;52067;50.710;14.492;2024-02-21T05:08:44;4.77;90.49
65470;DHT22;52067;50.710;14.492;2024-02-21T05:11:10;5.00;90.36
65470;DHT22;52067;50.710;14.492;2024-02-21T05:13:35;5.19;89.84
65470;DHT22;52067;50.710;14.492;2024-02-21T05:16:00;5.13;89.27
65470;DHT22;52067;50.710;14.492;2024-02-21T05:18:27;4.99;89.43
65470;DHT22;52067;50.710;14.492;2024-02-21T05:20:53;4.80;89.70
65470;DHT22;52067;50.710;14.492;2024-02-21T05:23:18;4.75;90.20
65470;DHT22;52067;50.710;14.492;2024-02-21T05:25:44;4.73;90.80
65470;DHT22;52067;50.710;14.492;2024-02-21T05:28:09;4.87;90.35
65470;DHT22;52067;50.710;14.492;2024-02-21T05:30:34;4.75;90.36
65470;DHT22;52067;50.710;14.492;2024-02-21T05:33:06;4.86;90.26
65470;DHT22;52067;50.710;14.492;2024-02-21T05:35:32;4.94;90.44
65470;DHT22;52067;50.710;14.492;2024-02-21T05:37:58;4.96;90.32
65470;DHT22;52067;50.710;14.492;2024-02-21T05:40:24;4.96;90.04
65470;DHT22;52067;50.710;14.492;2024-02-21T05:42:50;5.07;89.94
65470;DHT22;52067;50.710;14.492;2024-02-21T05:45:17;5.23;89.62
65470;DHT22;52067;50.710;14.492;2024-02-21T05:47:42;5.16;89.37
65470;DHT22;52067;50.710;14.492;2024-02-21T05:50:08;5.21;89.30
65470;DHT22;52067;50.710;14.492;2024-02-21T05:52:34;5.09;89.36
65470;DHT22;52067;50.710;14.492;2024-02-21T05:54:59;5.09;89.34
65470;DHT22;52067;50.710;14.492;2024-02-21T05:57:24;4.76;89.99
65470;DHT22;52067;50.710;14.492;2024-02-21T05:59:50;5.03;89.86
65470;DHT22;52067;50.710;14.492;2024-02-21T06:02:15;4.96;90.10
65470;DHT22;52067;50.710;14.492;2024-02-21T06:04:41;5.19;89.85
65470;DHT22;52067;50.710;14.492;2024-02-21T06:07:07;4.97;89.68
65470;DHT22;52067;50.710;14.492;2024-02-21T06:09:33;5.14;89.84
65470;DHT22;52067;50.710;14.492;2024-02-21T06:11:58;5.17;89.25
65470;DHT22;52067;50.710;14.492;2024-02-21T06:14:24;4.80;90.58
65470;DHT22;52067;50.710;14.492;2024-02-21T06:16:49;4.84;90.81
65470;DHT22;52067;50.710;14.492;2024-02-21T06:19:15;4.82;90.53
65470;DHT22;52067;50.710;14.492;2024-02-21T06:21:40;4.79;90.79
65470;DHT22;52067;50.710;14.492;2024-02-21T06:24:05;4.94;90.50
65470;DHT22;52067;50.710;14.492;2024-02-21T06:26:31;5.14;90.04
65470;DHT22;52067;50.710;14.492;2024-02-21T06:28:56;4.93;89.78
65470;DHT22;52067;50.710;14.492;2024-02-21T06:31:22;5.07;90.37
65470;DHT22;52067;50.710;14.492;2024-02-21T06:33:47;5.07;90.18
65470;DHT22;52067;50.710;14.492;2024-02-21T06:36:13;4.63;90.77
65470;DHT22;52067;50.710;14.492;2024-02-21T06:38:38;4.66;91.13
65470;DHT22;52067;50.710;14.492;2024-02-21T06:41:03;4.94;91.10
65470;DHT22;52067;50.710;14.492;2024-02-21T06:43:29;5.07;90.65
65470;DHT22;52067;50.710;14.492;2024-02-21T06:45:55;5.28;90.32
65470;DHT22;52067;50.710;14.492;2024-02-21T06:48:22;5.21;89.89
65470;DHT22;52067;50.710;14.492;2024-02-21T06:50:47;5.47;89.81
65470;DHT22;52067;50.710;14.492;2024-02-21T06:53:13;5.65;89.31
65470;DHT22;52067;50.710;14.492;2024-02-21T06:55:38;5.48;89.14
65470;DHT22;52067;50.710;14.492;2024-02-21T06:58:04;5.56;89.32
65470;DHT22;52067;50.710;14.492;2024-02-21T07:00:29;5.37;89.46
65470;DHT22;52067;50.710;14.492;2024-02-21T07:02:55;5.51;89.54
65470;DHT22;52067;50.710;14.492;2024-02-21T07:05:20;5.69;89.34
65470;DHT22;52067;50.710;14.492;2024-02-21T07:07:46;5.76;88.69
65470;DHT22;52067;50.710;14.492;2024-02-21T07:10:11;5.59;88.90
65470;DHT22;52067;50.710;14.492;2024-02-21T07:12:37;5.58;89.28
65470;DHT22;52067;50.710;14.492;2024-02-21T07:15:07;5.73;89.50
65470;DHT22;52067;50.710;14.492;2024-02-21T07:17:32;5.86;88.90
65470;DHT22;52067;50.710;14.492;2024-02-21T07:19:58;5.72;89.22
65470;DHT22;52067;50.710;14.492;2024-02-21T07:22:24;5.50;89.66
65470;DHT22;52067;50.710;14.492;2024-02-21T07:24:49;5.56;89.99
65470;DHT22;52067;50.710;14.492;2024-02-21T07:27:15;5.59;89.82
65470;DHT22;52067;50.710;14.492;2024-02-21T07:29:41;5.56;89.93
65470;DHT22;52067;50.710;14.492;2024-02-21T07:32:06;5.50;90.21
65470;DHT22;52067;50.710;14.492;2024-02-21T07:34:32;5.52;90.53
65470;DHT22;52067;50.710;14.492;2024-02-21T07:36:57;5.86;90.16
65470;DHT22;52067;50.710;14.492;2024-02-21T07:39:22;6.06;89.59
65470;DHT22;52067;50.710;14.492;2024-02-21T07:41:48;5.99;88.74
65470;DHT22;52067;50.710;14.492;2024-02-21T07:44:15;6.23;88.98
65470;DHT22;52067;50.710;14.492;2024-02-21T07:46:40;6.41;88.49
65470;DHT22;52067;50.710;14.492;2024-02-21T07:49:05;6.19;88.48
65470;DHT22;52067;50.710;14.492;2024-02-21T07:51:31;6.23;88.34
65470;DHT22;52067;50.710;14.492;2024-02-21T07:53:56;6.27;88.30
65470;DHT22;52067;50.710;14.492;2024-02-21T07:56:22;6.27;88.16
65470;DHT22;52067;50.710;14.492;2024-02-21T07:58:47;6.51;87.91
65470;DHT22;52067;50.710;14.492;2024-02-21T08:01:18;6.52;87.50
65470;DHT22;52067;50.710;14.492;2024-02-21T08:03:44;6.48;87.44
65470;DHT22;52067;50.710;14.492;2024-02-21T08:06:13;6.63;87.66
65470;DHT22;52067;50.710;14.492;2024-02-21T08:08:39;6.72;86.80
65470;DHT22;52067;50.710;14.492;2024-02-21T08:11:04;6.57;87.19
65470;DHT22;52067;50.710;14.492;2024-02-21T08:13:30;6.60;88.25
65470;DHT22;52067;50.710;14.492;2024-02-21T08:15:56;6.52;88.41
65470;DHT22;52067;50.710;14.492;2024-02-21T08:18:22;6.61;88.49
65470;DHT22;52067;50.710;14.492;2024-02-21T08:20:47;6.42;88.74
65470;DHT22;52067;50.710;14.492;2024-02-21T08:23:16;6.54;88.46
65470;DHT22;52067;50.710;14.492;2024-02-21T08:25:41;6.79;88.28
65470;DHT22;52067;50.710;14.492;2024-02-21T08:28:07;6.77;87.55
65470;DHT22;52067;50.710;14.492;2024-02-21T08:30:33;7.10;87.40
65470;DHT22;52067;50.710;14.492;2024-02-21T08:32:59;7.31;86.70
65470;DHT22;52067;50.710;14.492;2024-02-21T08:35:24;7.27;86.08
65470;DHT22;52067;50.710;14.492;2024-02-21T08:37:49;7.36;85.81
65470;DHT22;52067;50.710;14.492;2024-02-21T08:40:15;7.51;85.47
65470;DHT22;52067;50.710;14.492;2024-02-21T08:42:44;7.67;84.53
65470;DHT22;52067;50.710;14.492;2024-02-21T08:45:10;7.63;84.12
65470;DHT22;52067;50.710;14.492;2024-02-21T08:47:35;7.73;82.96
65470;DHT22;52067;50.710;14.492;2024-02-21T08:50:02;7.79;82.48
65470;DHT22;52067;50.710;14.492;2024-02-21T08:52:27;7.63;84.33
65470;DHT22;52067;50.710;14.492;2024-02-21T08:54:52;7.81;82.91
65470;DHT22;52067;50.710;14.492;2024-02-21T08:57:19;8.03;82.48
65470;DHT22;52067;50.710;14.492;2024-02-21T08:59:44;8.36;80.07
65470;DHT22;52067;50.710;14.492;2024-02-21T09:02:10;8.80;80.63
65470;DHT22;52067;50.710;14.492;2024-02-21T09:04:35;9.16;78.34
65470;DHT22;52067;50.710;14.492;2024-02-21T09:07:00;9.03;77.03
65470;DHT22;52067;50.710;14.492;2024-02-21T09:09:26;8.83;77.93
65470;DHT22;52067;50.710;14.492;2024-02-21T09:11:53;8.77;78.30
65470;DHT22;52067;50.710;14.492;2024-02-21T09:14:19;8.50;79.22
65470;DHT22;52067;50.710;14.492;2024-02-21T09:16:44;8.66;79.85
65470;DHT22;52067;50.710;14.492;2024-02-21T09:19:10;9.05;77.52
65470;DHT22;52067;50.710;14.492;2024-02-21T09:21:37;8.92;78.56
65470;DHT22;52067;50.710;14.492;2024-02-21T09:24:03;8.71;77.17
65470;DHT22;52067;50.710;14.492;2024-02-21T09:26:28;8.49;78.17
65470;DHT22;52067;50.710;14.492;2024-02-21T09:28:54;8.67;79.65
65470;DHT22;52067;50.710;14.492;2024-02-21T09:31:19;8.76;79.29
65470;DHT22;52067;50.710;14.492;2024-02-21T09:33:45;9.21;77.49
65470;DHT22;52067;50.710;14.492;2024-02-21T09:36:10;9.12;76.26
65470;DHT22;52067;50.710;14.492;2024-02-21T09:38:36;9.31;77.64
65470;DHT22;52067;50.710;14.492;2024-02-21T09:43:40;13.04;66.10
65470;DHT22;52067;50.710;14.492;2024-02-21T09:46:07;13.40;62.63
65470;DHT22;52067;50.710;14.492;2024-02-21T09:48:52;12.53;64.34
65470;DHT22;52067;50.710;14.492;2024-02-21T09:51:20;11.83;68.29
65470;DHT22;52067;50.710;14.492;2024-02-21T09:53:47;11.42;69.74
65470;DHT22;52067;50.710;14.492;2024-02-21T09:56:13;10.66;70.69
65470;DHT22;52067;50.710;14.492;2024-02-21T09:58:39;10.21;71.98
65470;DHT22;52067;50.710;14.492;2024-02-21T10:01:04;9.73;74.35
65470;DHT22;52067;50.710;14.492;2024-02-21T10:03:32;9.79;74.42
65470;DHT22;52067;50.710;14.492;2024-02-21T10:05:58;10.49;73.64
65470;DHT22;52067;50.710;14.492;2024-02-21T10:08:26;11.52;70.02
65470;DHT22;52067;50.710;14.492;2024-02-21T10:10:51;11.72;67.91
65470;DHT22;52067;50.710;14.492;2024-02-21T10:13:25;11.40;68.02
65470;DHT22;52067;50.710;14.492;2024-02-21T10:16:02;12.47;65.04
65470;DHT22;52067;50.710;14.492;2024-02-21T10:18:28;13.23;63.37
65470;DHT22;52067;50.710;14.492;2024-02-21T10:21:20;13.64;61.82
65470;DHT22;52067;50.710;14.492;2024-02-21T10:23:47;12.34;66.73
65470;DHT22;52067;50.710;14.492;2024-02-21T10:26:14;12.57;65.46
65470;DHT22;52067;50.710;14.492;2024-02-21T10:28:39;13.64;61.61
65470;DHT22;52067;50.710;14.492;2024-02-21T10:31:11;12.78;63.45
65470;DHT22;52067;50.710;14.492;2024-02-21T10:33:59;12.50;65.01
65470;DHT22;52067;50.710;14.492;2024-02-21T10:36:28;12.22;66.58
65470;DHT22;52067;50.710;14.492;2024-02-21T10:38:54;11.32;68.41
65470;DHT22;52067;50.710;14.492;2024-02-21T10:41:21;11.27;68.96
65470;DHT22;52067;50.710;14.492;2024-02-21T10:43:53;10.73;71.33
65470;DHT22;52067;50.710;14.492;2024-02-21T10:46:20;10.97;70.55
65470;DHT22;52067;50.710;14.492;2024-02-21T10:48:47;11.13;70.99
65470;DHT22;52067;50.710;14.492;2024-02-21T10:54:13;10.90;70.91
65470;DHT22;52067;50.710;14.492;2024-02-21T10:56:44;11.78;68.11
65470;DHT22;52067;50.710;14.492;2024-02-21T10:59:11;12.43;65.53
65470;DHT22;52067;50.710;14.492;2024-02-21T11:01:38;12.40;64.99
65470;DHT22;52067;50.710;14.492;2024-02-21T11:04:08;12.07;66.62
65470;DHT22;52067;50.710;14.492;2024-02-21T11:06:37;13.52;62.16
65470;DHT22;52067;50.710;14.492;2024-02-21T11:09:10;14.65;58.50
65470;DHT22;52067;50.710;14.492;2024-02-21T11:11:38;14.45;60.37
65470;DHT22;52067;50.710;14.492;2024-02-21T11:16:40;11.57;67.30
65470;DHT22;52067;50.710;14.492;2024-02-21T11:19:10;11.07;69.81
65470;DHT22;52067;50.710;14.492;2024-02-21T11:21:43;11.01;69.29
65470;DHT22;52067;50.710;14.492;2024-02-21T11:24:09;11.04;69.41
65470;DHT22;52067;50.710;14.492;2024-02-21T11:26:37;11.10;68.06
65470;DHT22;52067;50.710;14.492;2024-02-21T11:29:02;11.21;68.93
65470;DHT22;52067;50.710;14.492;2024-02-21T11:31:44;11.17;69.22
65470;DHT22;52067;50.710;14.492;2024-02-21T11:34:13;10.83;70.16
65470;DHT22;52067;50.710;14.492;2024-02-21T11:36:49;10.95;70.87
65470;DHT22;52067;50.710;14.492;2024-02-21T11:39:23;10.77;71.58
65470;DHT22;52067;50.710;14.492;2024-02-21T11:42:18;10.92;71.01
65470;DHT22;52067;50.710;14.492;2024-02-21T11:44:45;11.00;68.69
65470;DHT22;52067;50.710;14.492;2024-02-21T11:47:10;10.86;70.46
65470;DHT22;52067;50.710;14.492;2024-02-21T11:49:44;10.82;70.81
65470;DHT22;52067;50.710;14.492;2024-02-21T11:52:10;10.76;72.05
65470;DHT22;52067;50.710;14.492;2024-02-21T11:54:36;10.65;71.26
65470;DHT22;52067;50.710;14.492;2024-02-21T11:57:01;10.73;71.19
65470;DHT22;52067;50.710;14.492;2024-02-21T11:59:30;10.83;72.00
65470;DHT22;52067;50.710;14.492;2024-02-21T12:01:58;10.76;70.90
65470;DHT22;52067;50.710;14.492;2024-02-21T12:04:24;10.88;71.65
65470;DHT22;52067;50.710;14.492;2024-02-21T12:06:49;10.79;72.09
65470;DHT22;52067;50.710;14.492;2024-02-21T12:09:15;11.00;69.42
65470;DHT22;52067;50.710;14.492;2024-02-21T12:11:41;10.76;71.11
65470;DHT22;52067;50.710;14.492;2024-02-21T12:14:06;10.95;70.24
65470;DHT22;52067;50.710;14.492;2024-02-21T12:16:32;11.17;68.63
65470;DHT22;52067;50.710;14.492;2024-02-21T12:19:01;10.92;69.14
65470;DHT22;52067;50.710;14.492;2024-02-21T12:21:30;10.79;68.08
65470;DHT22;52067;50.710;14.492;2024-02-21T12:23:55;10.95;70.67
65470;DHT22;52067;50.710;14.492;2024-02-21T12:26:22;11.11;69.42
65470;DHT22;52067;50.710;14.492;2024-02-21T12:28:47;11.00;69.71
65470;DHT22;52067;50.710;14.492;2024-02-21T12:31:13;10.73;68.55
65470;DHT22;52067;50.710;14.492;2024-02-21T12:33:39;10.68;70.62
65470;DHT22;52067;50.710;14.492;2024-02-21T12:36:04;10.69;68.83
65470;DHT22;52067;50.710;14.492;2024-02-21T12:38:30;10.62;71.19
65470;DHT22;52067;50.710;14.492;2024-02-21T12:40:55;10.52;71.70
65470;DHT22;52067;50.710;14.492;2024-02-21T12:43:22;10.82;71.45
65470;DHT22;52067;50.710;14.492;2024-02-21T12:45:48;10.65;70.26
65470;DHT22;52067;50.710;14.492;2024-02-21T12:48:14;10.84;70.54
65470;DHT22;52067;50.710;14.492;2024-02-21T12:50:41;11.00;68.86
65470;DHT22;52067;50.710;14.492;2024-02-21T12:53:13;11.23;67.23
65470;DHT22;52067;50.710;14.492;2024-02-21T12:55:38;11.32;69.45
65470;DHT22;52067;50.710;14.492;2024-02-21T12:58:04;11.32;66.79
65470;DHT22;52067;50.710;14.492;2024-02-21T13:00:32;11.10;67.48
65470;DHT22;52067;50.710;14.492;2024-02-21T13:02:58;10.95;67.51
65470;DHT22;52067;50.710;14.492;2024-02-21T13:05:23;10.73;68.38
65470;DHT22;52067;50.710;14.492;2024-02-21T13:07:49;10.71;68.93
65470;DHT22;52067;50.710;14.492;2024-02-21T13:10:14;10.80;69.92
65470;DHT22;52067;50.710;14.492;2024-02-21T13:12:40;10.77;67.28
65470;DHT22;52067;50.710;14.492;2024-02-21T13:15:05;10.86;68.40
65470;DHT22;52067;50.710;14.492;2024-02-21T13:17:31;11.03;69.05
65470;DHT22;52067;50.710;14.492;2024-02-21T13:19:57;11.48;65.95
65470;DHT22;52067;50.710;14.492;2024-02-21T13:22:22;11.88;64.20
65470;DHT22;52067;50.710;14.492;2024-02-21T13:24:51;12.38;63.75
65470;DHT22;52067;50.710;14.492;2024-02-21T13:27:16;12.07;62.90
65470;DHT22;52067;50.710;14.492;2024-02-21T13:29:42;12.13;63.71
65470;DHT22;52067;50.710;14.492;2024-02-21T13:32:07;12.40;61.28
65470;DHT22;52067;50.710;14.492;2024-02-21T13:34:33;14.39;57.48
65470;DHT22;52067;50.710;14.492;2024-02-21T13:36:59;13.33;59.03
65470;DHT22;52067;50.710;14.492;2024-02-21T13:39:25;14.18;55.03
65470;DHT22;52067;50.710;14.492;2024-02-21T13:41:50;14.73;56.79
65470;DHT22;52067;50.710;14.492;2024-02-21T13:44:16;14.41;55.75
65470;DHT22;52067;50.710;14.492;2024-02-21T13:46:41;15.01;54.86
65470;DHT22;52067;50.710;14.492;2024-02-21T13:49:06;15.44;53.92
65470;DHT22;52067;50.710;14.492;2024-02-21T13:51:33;15.76;52.55
65470;DHT22;52067;50.710;14.492;2024-02-21T13:54:02;16.09;49.74
65470;DHT22;52067;50.710;14.492;2024-02-21T13:56:29;16.12;48.65
65470;DHT22;52067;50.710;14.492;2024-02-21T13:58:54;16.36;49.39
65470;DHT22;52067;50.710;14.492;2024-02-21T14:01:20;16.14;50.31
65470;DHT22;52067;50.710;14.492;2024-02-21T14:03:45;16.23;48.43
65470;DHT22;52067;50.710;14.492;2024-02-21T14:06:11;16.18;49.85
65470;DHT22;52067;50.710;14.492;2024-02-21T14:08:37;16.91;48.13
65470;DHT22;52067;50.710;14.492;2024-02-21T14:11:05;16.75;49.72
65470;DHT22;52067;50.710;14.492;2024-02-21T14:13:31;17.03;46.97
65470;DHT22;52067;50.710;14.492;2024-02-21T14:15:56;16.44;50.22
65470;DHT22;52067;50.710;14.492;2024-02-21T14:18:22;17.29;46.91
65470;DHT22;52067;50.710;14.492;2024-02-21T14:20:47;17.91;46.88
65470;DHT22;52067;50.710;14.492;2024-02-21T14:23:13;17.54;46.42
65470;DHT22;52067;50.710;14.492;2024-02-21T14:25:38;16.82;48.56
65470;DHT22;52067;50.710;14.492;2024-02-21T14:28:05;16.65;49.57
65470;DHT22;52067;50.710;14.492;2024-02-21T14:30:30;16.92;49.56
65470;DHT22;52067;50.710;14.492;2024-02-21T14:32:55;16.38;49.89
65470;DHT22;52067;50.710;14.492;2024-02-21T14:35:21;15.11;51.24
65470;DHT22;52067;50.710;14.492;2024-02-21T14:37:46;13.77;55.60
65470;DHT22;52067;50.710;14.492;2024-02-21T14:40:14;13.01;58.14
65470;DHT22;52067;50.710;14.492;2024-02-21T14:42:39;13.04;58.70
65470;DHT22;52067;50.710;14.492;2024-02-21T14:45:07;13.77;56.74
65470;DHT22;52067;50.710;14.492;2024-02-21T14:47:33;14.02;56.38
65470;DHT22;52067;50.710;14.492;2024-02-21T14:49:58;14.15;56.76
65470;DHT22;52067;50.710;14.492;2024-02-21T14:52:24;14.62;55.90
65470;DHT22;52067;50.710;14.492;2024-02-21T14:54:55;14.63;56.53
65470;DHT22;52067;50.710;14.492;2024-02-21T14:57:21;15.44;55.45
65470;DHT22;52067;50.710;14.492;2024-02-21T14:59:47;14.83;57.93
65470;DHT22;52067;50.710;14.492;2024-02-21T15:02:15;14.70;54.80
65470;DHT22;52067;50.710;14.492;2024-02-21T15:04:40;14.15;56.33
65470;DHT22;52067;50.710;14.492;2024-02-21T15:07:06;13.93;56.94
65470;DHT22;52067;50.710;14.492;2024-02-21T15:09:31;14.08;57.17
65470;DHT22;52067;50.710;14.492;2024-02-21T15:11:57;14.12;57.51
65470;DHT22;52067;50.710;14.492;2024-02-21T15:14:24;14.21;57.80
65470;DHT22;52067;50.710;14.492;2024-02-21T15:16:49;13.98;58.38
65470;DHT22;52067;50.710;14.492;2024-02-21T15:19:15;14.45;56.93
65470;DHT22;52067;50.710;14.492;2024-02-21T15:21:40;13.94;58.58
65470;DHT22;52067;50.710;14.492;2024-02-21T15:24:05;13.43;61.03
65470;DHT22;52067;50.710;14.492;2024-02-21T15:26:31;13.02;61.67
65470;DHT22;52067;50.710;14.492;2024-02-21T15:28:56;12.75;62.65